Time;durP1;ratioP1;P1;durP2;ratioP2;P2;SDS_P1;SDS_P2;PMS_P1;PMS_P2;Temp;Humidity;BMP_temperature;BMP_pressure;BME280_temperature;BME280_humidity;BME280_pressure;Samples;Min_cycle;Max_cycle;Signal;HPM_P1;HPM_P2
2022/05/27 05:15:22;;;;;;;12.60;11.90;;;16.90;99.90;;;;;;6071409;23;20426;31
2022/05/27 05:17:51;;;;;;;12.30;11.70;;;16.90;99.90;;;;;;4931193;29;20834;-77
2022/05/27 05:20:22;;;;;;;12.43;11.83;;;16.90;99.90;;;;;;4939472;29;20467;-75
2022/05/27 05:22:49;;;;;;;11.87;11.10;;;16.80;99.90;;;;;;4943307;29;20873;-75
2022/05/27 05:25:16;;;;;;;12.60;11.90;;;16.70;99.90;;;;;;4942759;29;20454;-76
2022/05/27 05:27:43;;;;;;;11.70;11.23;;;16.70;99.90;;;;;;4943937;29;20456;-76
2022/05/27 05:30:12;;;;;;;11.80;10.90;;;16.70;99.90;;;;;;4944225;29;20678;-76
2022/05/27 05:32:39;;;;;;;13.33;12.00;;;16.70;99.90;;;;;;4939689;29;20468;-75
2022/05/27 05:35:09;;;;;;;12.73;11.50;;;16.60;99.90;;;;;;4943940;29;20449;-76
2022/05/27 05:37:36;;;;;;;11.43;10.83;;;16.80;99.90;;;;;;4942658;29;20446;-75
2022/05/27 05:40:03;;;;;;;11.60;10.93;;;16.90;99.90;;;;;;4944141;29;20456;-75
2022/05/27 05:42:30;;;;;;;12.60;11.83;;;16.90;99.90;;;;;;4944209;29;20458;-75
2022/05/27 05:44:58;;;;;;;13.43;12.53;;;17.10;99.90;;;;;;4942648;29;20807;-77
2022/05/27 05:47:25;;;;;;;12.87;12.17;;;17.30;99.90;;;;;;4943647;29;20452;-76
2022/05/27 05:49:51;;;;;;;12.37;11.40;;;17.60;99.90;;;;;;4944006;29;20885;-76
2022/05/27 05:52:19;;;;;;;12.60;11.50;;;17.80;99.90;;;;;;4939365;29;20448;-76
2022/05/27 05:54:46;;;;;;;11.77;11.17;;;18.00;99.90;;;;;;4943705;29;20457;-76
2022/05/27 05:57:13;;;;;;;11.80;11.10;;;17.90;99.90;;;;;;4942528;29;20466;-76
2022/05/27 05:59:40;;;;;;;11.63;11.00;;;17.70;99.90;;;;;;4939181;29;20437;-75
2022/05/27 06:02:08;;;;;;;12.67;11.40;;;17.70;99.90;;;;;;4943312;29;20449;-76
2022/05/27 06:04:35;;;;;;;11.40;10.70;;;17.50;99.90;;;;;;4951518;29;20452;-75
2022/05/27 06:07:03;;;;;;;11.47;10.90;;;17.30;99.90;;;;;;4954160;29;20437;-77
2022/05/27 06:09:31;;;;;;;12.83;11.73;;;17.20;99.90;;;;;;4953708;29;20456;-77
2022/05/27 06:12:01;;;;;;;11.47;10.77;;;17.50;99.90;;;;;;4953945;29;20872;-76
2022/05/27 06:14:28;;;;;;;11.37;10.87;;;17.40;99.90;;;;;;4953643;29;20468;-75
2022/05/27 06:17:18;;;;;;;12.00;11.53;;;17.30;99.90;;;;;;4965754;28;20479;-73
2022/05/27 06:19:45;;;;;;;12.63;11.83;;;17.30;99.90;;;;;;4967760;28;20879;-75
2022/05/27 06:22:12;;;;;;;11.83;11.23;;;17.60;99.90;;;;;;4972189;28;20467;-73
2022/05/27 06:24:40;;;;;;;12.30;11.70;;;17.80;99.90;;;;;;4972713;28;20440;-73
2022/05/27 06:27:07;;;;;;;12.10;11.53;;;17.80;99.90;;;;;;4970760;28;20448;-73
2022/05/27 06:35:03;;;;;;;12.77;12.17;;;18.50;99.90;;;;;;4972642;28;20432;-74
2022/05/27 06:37:30;;;;;;;11.80;11.30;;;18.70;99.90;;;;;;4971929;28;20961;-73
2022/05/27 06:39:59;;;;;;;12.03;11.43;;;18.60;99.90;;;;;;4971537;28;20458;-74
2022/05/27 06:42:25;;;;;;;11.80;11.30;;;18.70;99.90;;;;;;4972212;28;21313;-73
2022/05/27 06:44:52;;;;;;;10.67;10.17;;;18.80;99.90;;;;;;4972031;28;20460;-74
2022/05/27 06:47:19;;;;;;;12.30;11.80;;;18.80;99.90;;;;;;4972235;28;20451;-75
2022/05/27 06:49:46;;;;;;;12.10;11.50;;;18.80;99.90;;;;;;4972209;28;20470;-75
2022/05/27 06:52:14;;;;;;;11.27;10.77;;;18.90;99.90;;;;;;4972083;28;20459;-73
2022/05/27 06:54:41;;;;;;;11.60;11.00;;;18.80;99.90;;;;;;4971835;28;20451;-74
2022/05/27 06:57:10;;;;;;;12.40;11.70;;;18.80;99.90;;;;;;4971815;28;20456;-74
2022/05/27 06:59:37;;;;;;;11.97;11.47;;;18.60;99.90;;;;;;4971595;28;20852;-75
2022/05/27 07:02:04;;;;;;;12.07;11.07;;;18.50;99.90;;;;;;4972206;28;20817;-74
2022/05/27 07:04:31;;;;;;;12.50;11.70;;;18.30;99.90;;;;;;4972203;28;20463;-73
2022/05/27 07:06:58;;;;;;;11.90;10.90;;;18.40;99.90;;;;;;4971992;28;20463;-72
2022/05/27 07:09:25;;;;;;;12.10;11.50;;;18.30;99.90;;;;;;4971777;28;20827;-72
2022/05/27 07:11:55;;;;;;;12.57;11.67;;;18.50;99.90;;;;;;4971799;28;20502;-74
2022/05/27 07:14:23;;;;;;;11.33;10.73;;;18.60;99.90;;;;;;4971744;28;20480;-74
2022/05/27 07:16:50;;;;;;;11.73;11.23;;;18.80;99.90;;;;;;4971666;28;20487;-73
2022/05/27 07:19:19;;;;;;;12.20;11.57;;;18.90;99.90;;;;;;4972228;28;20460;-75
2022/05/27 07:21:47;;;;;;;11.90;11.30;;;19.00;99.90;;;;;;4972230;28;20555;-73
2022/05/27 07:24:16;;;;;;;13.67;12.60;;;19.10;99.90;;;;;;4971685;28;20444;-74
2022/05/27 07:26:45;;;;;;;12.00;11.07;;;19.00;99.90;;;;;;4969915;28;20460;-74
2022/05/27 07:29:13;;;;;;;12.20;11.70;;;18.80;99.90;;;;;;4971469;28;20459;-73
2022/05/27 07:31:43;;;;;;;12.10;11.40;;;18.70;99.90;;;;;;4971282;28;20490;-74
2022/05/27 07:34:10;;;;;;;11.77;11.20;;;18.40;99.90;;;;;;4971462;28;20462;-74
2022/05/27 07:36:37;;;;;;;12.30;11.60;;;18.50;99.90;;;;;;4971480;28;20459;-74
2022/05/27 07:39:04;;;;;;;12.20;11.50;;;18.40;99.90;;;;;;4969891;28;20797;-74
2022/05/27 07:41:32;;;;;;;12.10;11.20;;;18.40;99.90;;;;;;4971506;28;20474;-74
2022/05/27 07:44:01;;;;;;;11.70;11.10;;;18.40;99.90;;;;;;4971291;28;20451;-74
2022/05/27 07:46:30;;;;;;;12.40;11.67;;;18.30;99.90;;;;;;4971290;28;20459;-74
2022/05/27 07:48:58;;;;;;;11.87;11.00;;;18.40;99.90;;;;;;4971323;28;20549;-74
2022/05/27 07:51:25;;;;;;;10.13;9.73;;;18.50;99.90;;;;;;4974934;28;20851;-74
2022/05/27 07:53:52;;;;;;;11.37;10.77;;;18.70;99.90;;;;;;4975063;28;20463;-75
2022/05/27 07:56:19;;;;;;;11.80;11.10;;;18.80;99.90;;;;;;4975173;28;20459;-75
2022/05/27 07:58:46;;;;;;;12.23;11.70;;;19.00;99.90;;;;;;4975416;28;20459;-74
2022/05/27 08:01:13;;;;;;;12.23;11.17;;;19.10;99.90;;;;;;4975086;28;20546;-74
2022/05/27 08:03:41;;;;;;;11.63;11.13;;;19.20;99.90;;;;;;4975082;28;20463;-73
2022/05/27 08:06:10;;;;;;;11.80;11.20;;;19.40;99.90;;;;;;4975085;28;20466;-73
2022/05/27 08:08:37;;;;;;;12.30;11.63;;;19.50;99.90;;;;;;4974994;28;20882;-72
2022/05/27 08:11:04;;;;;;;12.70;12.00;;;19.50;99.90;;;;;;4975187;28;20541;-73
2022/05/27 08:13:30;;;;;;;11.60;11.10;;;19.60;99.90;;;;;;4975056;28;20954;-74
2022/05/27 08:15:57;;;;;;;13.83;12.90;;;19.80;99.90;;;;;;4974462;28;20487;-74
2022/05/27 08:18:24;;;;;;;10.97;10.33;;;19.90;99.90;;;;;;4974767;28;20463;-74
2022/05/27 08:20:51;;;;;;;10.90;10.40;;;20.00;99.90;;;;;;4974737;28;20456;-74
2022/05/27 08:23:19;;;;;;;12.10;11.50;;;20.20;99.90;;;;;;4974961;28;20456;-73
2022/05/27 08:25:46;;;;;;;10.87;10.40;;;20.30;99.90;;;;;;4974944;28;20455;-74
2022/05/27 08:28:12;;;;;;;11.60;11.07;;;20.00;99.90;;;;;;4974535;28;20463;-74
2022/05/27 08:30:40;;;;;;;11.77;10.90;;;20.00;99.90;;;;;;4974486;28;20489;-74
2022/05/27 08:33:08;;;;;;;11.30;10.80;;;19.90;99.90;;;;;;4974429;28;20460;-71
2022/05/27 08:38:24;;;;;;;12.37;11.60;;;20.10;99.90;;;;;;4974796;28;20435;-72
2022/05/27 08:41:08;;;;;;;12.60;11.80;;;20.40;99.90;;;;;;4974697;28;20451;-71
2022/05/27 08:43:47;;;;;;;11.53;10.83;;;20.40;99.90;;;;;;4974709;28;20458;-72
2022/05/27 08:46:21;;;;;;;11.60;11.10;;;20.60;99.90;;;;;;4974622;28;20455;-72
2022/05/27 08:48:54;;;;;;;10.67;10.17;;;20.10;99.90;;;;;;4974609;28;20808;-72
2022/05/27 08:51:23;;;;;;;11.90;11.00;;;19.90;99.90;;;;;;4971225;28;20483;-73
2022/05/27 08:53:55;;;;;;;11.90;11.30;;;20.10;99.90;;;;;;4973993;28;20463;-75
2022/05/27 08:59:31;;;;;;;11.10;10.70;;;20.60;99.90;;;;;;4973961;28;20827;-73
2022/05/27 09:02:03;;;;;;;12.00;11.40;;;20.70;99.90;;;;;;4973201;28;20456;-73
2022/05/27 09:04:37;;;;;;;12.27;11.53;;;20.90;99.90;;;;;;4973991;28;20451;-72
2022/05/27 09:07:23;;;;;;;11.47;10.97;;;20.70;99.90;;;;;;4973580;28;20463;-73
2022/05/27 09:09:52;;;;;;;11.90;11.27;;;20.30;99.90;;;;;;4973743;28;20502;-73
2022/05/27 09:12:39;;;;;;;11.63;10.80;;;20.20;99.90;;;;;;4973712;28;20488;-72
2022/05/27 09:15:26;;;;;;;12.03;11.43;;;20.40;99.90;;;;;;4973261;28;20775;-72
2022/05/27 09:18:02;;;;;;;13.40;12.53;;;20.50;99.90;;;;;;4973597;28;20455;-72
2022/05/27 09:20:48;;;;;;;12.10;11.40;;;20.70;99.90;;;;;;4973461;28;20455;-72
2022/05/27 09:23:38;;;;;;;12.73;12.13;;;21.30;99.90;;;;;;4973792;28;20466;-72
2022/05/27 09:26:13;;;;;;;13.07;12.37;;;21.60;99.90;;;;;;4973491;28;20440;-73
2022/05/27 09:28:47;;;;;;;12.33;11.73;;;22.40;98.00;;;;;;4973222;28;20477;-73
2022/05/27 09:31:18;;;;;;;12.03;11.33;;;23.00;97.00;;;;;;4973183;28;20861;-74
2022/05/27 09:33:46;;;;;;;11.83;11.37;;;24.20;94.70;;;;;;4973762;28;20462;-72
2022/05/27 09:36:18;;;;;;;12.50;11.90;;;25.40;92.20;;;;;;4973285;28;20456;-73
2022/05/27 09:38:51;;;;;;;12.03;11.53;;;26.50;89.80;;;;;;4973557;28;20945;-73
2022/05/27 09:41:26;;;;;;;11.90;11.50;;;27.30;84.30;;;;;;4973638;28;20455;-73
2022/05/27 09:44:06;;;;;;;12.97;12.03;;;28.30;80.70;;;;;;4973122;28;20451;-73
2022/05/27 09:46:33;;;;;;;12.67;12.17;;;27.70;77.40;;;;;;4973151;28;20451;-72
2022/05/27 09:49:00;;;;;;;12.30;11.70;;;26.10;81.30;;;;;;4973186;28;20469;-72
2022/05/27 09:51:30;;;;;;;12.20;11.70;;;24.60;85.70;;;;;;4972876;28;20834;-71
2022/05/27 09:54:15;;;;;;;12.00;11.60;;;24.30;86.20;;;;;;4972890;28;20478;-72
2022/05/27 09:56:55;;;;;;;12.20;11.70;;;24.00;86.40;;;;;;4972890;28;20518;-72
2022/05/27 09:59:25;;;;;;;12.30;11.70;;;23.80;87.00;;;;;;4972629;28;20876;-71
2022/05/27 10:01:53;;;;;;;11.93;11.33;;;23.90;87.70;;;;;;4972546;28;20466;-71
2022/05/27 10:04:21;;;;;;;12.07;11.63;;;24.50;87.40;;;;;;4972475;28;20468;-71
2022/05/27 10:06:48;;;;;;;12.53;12.00;;;24.40;85.20;;;;;;4972573;28;20547;-72
2022/05/27 10:09:27;;;;;;;11.87;11.47;;;24.30;86.70;;;;;;4972431;28;20463;-71
2022/05/27 10:11:58;;;;;;;11.37;10.90;;;24.10;85.30;;;;;;4972134;28;20491;-72
2022/05/27 10:14:28;;;;;;;11.67;11.27;;;23.70;86.80;;;;;;4971304;28;20538;-72
2022/05/27 10:17:08;;;;;;;11.97;11.47;;;23.80;87.70;;;;;;4972027;28;20817;-72
2022/05/27 10:19:35;;;;;;;11.97;11.33;;;23.90;87.80;;;;;;4972429;28;20459;-72
2022/05/27 10:22:05;;;;;;;11.43;10.90;;;24.30;86.40;;;;;;4972314;28;20484;-73
2022/05/27 10:24:35;;;;;;;11.30;10.90;;;25.50;82.40;;;;;;4972281;28;20455;-72
2022/05/27 10:27:10;;;;;;;11.77;11.37;;;26.40;77.80;;;;;;4972507;28;20518;-73
2022/05/27 10:29:49;;;;;;;12.00;11.47;;;26.80;75.10;;;;;;4972091;28;20451;-72
2022/05/27 10:32:27;;;;;;;11.17;10.77;;;27.00;73.70;;;;;;4972267;28;20510;-73
2022/05/27 10:34:54;;;;;;;11.60;11.20;;;28.10;72.30;;;;;;4971721;28;20455;-73
2022/05/27 10:37:37;;;;;;;12.33;11.63;;;28.70;69.50;;;;;;4971598;28;20464;-73
2022/05/27 10:40:18;;;;;;;11.70;11.27;;;28.00;68.00;;;;;;4972519;28;20832;-72
2022/05/27 10:46:23;;;;;;;12.37;11.50;;;27.50;69.50;;;;;;4862466;29;20447;-73
2022/05/27 10:49:16;;;;;;;11.47;10.97;;;27.40;70.20;;;;;;4874443;29;20535;-73
2022/05/27 10:51:56;;;;;;;12.17;11.67;;;27.50;69.00;;;;;;4955946;28;20495;-73
2022/05/27 10:54:44;;;;;;;12.00;11.33;;;27.10;67.70;;;;;;4971431;28;20458;-73
2022/05/27 11:03:25;;;;;;;11.50;11.10;;;26.70;68.90;;;;;;4971949;28;20442;-72
2022/05/27 11:06:12;;;;;;;11.57;11.07;;;26.50;69.90;;;;;;4971707;28;20443;-72
2022/05/27 11:08:51;;;;;;;12.00;11.50;;;26.70;68.60;;;;;;4969690;28;20725;-71
2022/05/27 11:11:29;;;;;;;12.83;12.33;;;26.50;68.30;;;;;;4971289;28;20487;-73
2022/05/27 11:17:07;;;;;;;12.13;11.53;;;25.10;71.10;;;;;;4971554;28;20569;-70
2022/05/27 11:19:52;;;;;;;11.10;10.63;;;24.80;73.10;;;;;;4971525;28;20615;-73
2022/05/27 11:22:28;;;;;;;11.90;11.50;;;24.60;74.20;;;;;;4971516;28;20447;-74
2022/05/27 11:25:30;;;;;;;12.23;11.83;;;24.50;74.00;;;;;;4971183;28;20910;-73
2022/05/27 11:28:16;;;;;;;10.93;10.53;;;24.60;74.40;;;;;;4971373;28;20937;-73
2022/05/27 11:30:51;;;;;;;10.83;10.53;;;24.80;75.10;;;;;;4971310;28;20458;-73
2022/05/27 11:33:51;;;;;;;11.50;11.00;;;24.40;75.10;;;;;;4971366;28;20491;-73
2022/05/27 11:36:27;;;;;;;12.00;11.60;;;24.20;75.70;;;;;;4959746;28;20479;-73
2022/05/27 11:39:13;;;;;;;12.50;12.03;;;24.20;75.80;;;;;;4971475;28;20451;-73
2022/05/27 11:41:46;;;;;;;12.83;12.40;;;24.70;76.60;;;;;;4971214;28;20436;-73
2022/05/27 11:44:25;;;;;;;13.00;12.50;;;25.00;75.50;;;;;;4971260;28;20454;-73
2022/05/27 11:47:17;;;;;;;10.97;10.57;;;25.00;75.40;;;;;;4971246;28;20452;-73
2022/05/27 11:50:05;;;;;;;11.70;11.23;;;25.00;74.80;;;;;;4971115;28;20809;-73
2022/05/27 11:52:55;;;;;;;11.33;10.93;;;25.30;74.20;;;;;;4971358;28;20845;-73
2022/05/27 11:55:42;;;;;;;11.80;11.40;;;25.00;73.20;;;;;;4970946;28;20857;-72
2022/05/27 11:58:17;;;;;;;11.97;11.57;;;25.20;74.10;;;;;;4970846;28;20906;-72
2022/05/27 12:00:48;;;;;;;11.90;11.40;;;24.90;74.70;;;;;;4970986;28;20861;-73
2022/05/27 12:03:23;;;;;;;12.30;11.87;;;24.70;75.00;;;;;;4971114;28;20817;-72
2022/05/27 12:05:53;;;;;;;11.30;10.60;;;24.60;76.60;;;;;;4943799;28;20483;-73
2022/05/27 12:08:29;;;;;;;10.23;9.83;;;24.70;76.00;;;;;;4936928;29;20455;-72
2022/05/27 12:11:02;;;;;;;11.50;10.93;;;25.40;74.80;;;;;;4951678;29;20924;-73
2022/05/27 12:13:33;;;;;;;11.83;11.43;;;26.00;73.10;;;;;;4940111;29;20485;-72
2022/05/27 12:16:03;;;;;;;13.00;12.40;;;26.70;70.80;;;;;;4932335;29;20972;-73
2022/05/27 12:18:38;;;;;;;12.37;11.87;;;26.90;70.30;;;;;;4932691;29;20453;-73
2022/05/27 12:21:11;;;;;;;13.20;12.70;;;26.60;71.60;;;;;;4932517;29;20476;-73
2022/05/27 12:23:43;;;;;;;11.63;11.13;;;26.10;71.70;;;;;;4932523;29;20457;-73
2022/05/27 12:26:10;;;;;;;10.80;10.40;;;25.90;73.30;;;;;;4932510;29;20762;-73
2022/05/27 12:28:42;;;;;;;13.00;12.40;;;25.60;73.40;;;;;;4932515;29;20449;-72
2022/05/27 12:31:10;;;;;;;11.63;11.13;;;25.20;74.80;;;;;;4932471;29;20454;-73
2022/05/27 12:33:38;;;;;;;12.00;11.40;;;24.70;77.10;;;;;;4932207;29;20497;-73
2022/05/27 12:36:13;;;;;;;11.10;10.70;;;24.80;76.90;;;;;;4932481;29;20471;-73
2022/05/27 12:38:46;;;;;;;10.30;10.00;;;24.30;78.30;;;;;;4935727;29;20449;-73
2022/05/27 12:41:18;;;;;;;11.10;10.70;;;24.10;78.40;;;;;;4935767;29;20465;-72
2022/05/27 12:43:58;;;;;;;11.13;10.73;;;23.80;79.50;;;;;;4935813;29;20457;-72
2022/05/27 12:46:41;;;;;;;11.60;11.20;;;23.40;81.10;;;;;;4935625;29;21229;-73
2022/05/27 12:49:26;;;;;;;12.00;11.30;;;23.40;81.40;;;;;;4935673;29;20536;-73
2022/05/27 12:51:55;;;;;;;11.30;10.80;;;23.50;81.30;;;;;;4935497;29;20516;-72
2022/05/27 12:54:56;;;;;;;11.50;10.90;;;23.80;81.70;;;;;;4935765;29;20803;-73
2022/05/27 13:03:48;;;;;;;12.10;11.50;;;23.50;82.40;;;;;;4935063;29;20436;-73
2022/05/27 13:06:35;;;;;;;11.50;11.00;;;23.60;83.00;;;;;;4935363;29;21000;-73
2022/05/27 13:09:07;;;;;;;11.60;11.10;;;24.20;82.50;;;;;;4935095;29;20477;-74
2022/05/27 13:11:48;;;;;;;11.47;10.97;;;24.70;81.00;;;;;;4934992;29;20489;-73
2022/05/27 13:14:20;;;;;;;11.63;11.03;;;24.50;80.10;;;;;;4935018;29;20461;-73
2022/05/27 13:16:51;;;;;;;11.67;11.07;;;24.10;81.50;;;;;;4944007;28;20635;-72
2022/05/27 13:19:29;;;;;;;10.90;10.50;;;24.00;82.80;;;;;;4954366;29;20460;-73
2022/05/27 13:21:58;;;;;;;10.80;10.37;;;23.70;83.30;;;;;;4954172;29;20746;-74
2022/05/27 13:24:32;;;;;;;10.93;10.43;;;24.00;83.30;;;;;;4953991;28;20523;-74
2022/05/27 13:27:09;;;;;;;12.37;11.70;;;24.30;82.90;;;;;;4954089;29;20499;-73
2022/05/27 13:29:45;;;;;;;11.27;10.77;;;24.10;83.10;;;;;;4954076;29;20831;-73
2022/05/27 13:32:17;;;;;;;11.97;11.27;;;24.20;83.50;;;;;;4953966;29;20546;-72
2022/05/27 13:34:48;;;;;;;10.97;10.57;;;24.20;82.80;;;;;;4953714;29;20660;-72
2022/05/27 13:37:23;;;;;;;11.53;11.03;;;24.30;82.70;;;;;;4953983;29;20456;-74
2022/05/27 13:39:57;;;;;;;10.70;10.30;;;24.40;83.00;;;;;;4953883;29;20482;-74
2022/05/27 13:42:30;;;;;;;12.33;11.50;;;24.20;83.60;;;;;;4953789;29;20452;-73
2022/05/27 13:45:00;;;;;;;10.57;10.17;;;24.10;83.20;;;;;;4953662;29;20660;-74
2022/05/27 13:47:29;;;;;;;11.17;10.47;;;24.40;83.30;;;;;;4953648;28;20457;-73
2022/05/27 13:49:56;;;;;;;10.60;10.20;;;24.50;82.60;;;;;;4953645;28;20985;-72
2022/05/27 13:52:25;;;;;;;14.23;10.87;;;24.50;82.60;;;;;;4953392;28;20532;-72
2022/05/27 13:55:06;;;;;;;12.40;11.80;;;24.30;83.30;;;;;;4953649;29;20455;-73
2022/05/27 13:57:35;;;;;;;12.03;11.43;;;24.10;83.50;;;;;;4953831;29;20457;-74
2022/05/27 14:00:05;;;;;;;11.03;10.60;;;24.10;83.70;;;;;;4953743;28;20475;-73
2022/05/27 14:02:36;;;;;;;10.33;9.93;;;24.50;83.30;;;;;;4953879;28;20451;-72
2022/05/27 14:05:06;;;;;;;10.97;10.47;;;24.30;82.40;;;;;;4953680;29;20954;-73
2022/05/27 14:07:37;;;;;;;11.03;10.67;;;24.10;83.00;;;;;;4953580;29;20977;-73
2022/05/27 14:10:08;;;;;;;11.27;10.77;;;23.80;84.10;;;;;;4953363;29;20551;-73
2022/05/27 14:12:38;;;;;;;10.47;10.17;;;24.20;83.90;;;;;;4952535;29;20994;-72
2022/05/27 14:15:09;;;;;;;11.13;10.63;;;24.30;84.10;;;;;;4950596;29;20486;-73
2022/05/27 14:17:41;;;;;;;9.97;9.53;;;24.10;84.40;;;;;;4960502;28;20471;-72
2022/05/27 14:20:10;;;;;;;11.10;10.60;;;23.90;84.70;;;;;;4959753;28;20452;-73
2022/05/27 14:22:45;;;;;;;10.80;10.30;;;23.90;84.90;;;;;;4961070;28;20448;-73
2022/05/27 14:25:19;;;;;;;11.27;10.77;;;23.60;86.00;;;;;;4960913;28;20450;-73
2022/05/27 14:27:49;;;;;;;11.17;10.40;;;23.30;87.10;;;;;;4962643;28;20976;-74
2022/05/27 14:30:21;;;;;;;10.57;10.17;;;23.20;87.40;;;;;;4962801;28;20461;-73
2022/05/27 14:32:48;;;;;;;11.20;10.70;;;23.30;87.90;;;;;;4959977;28;20493;-73
2022/05/27 14:35:21;;;;;;;10.80;10.37;;;23.50;87.60;;;;;;4961501;28;20447;-75
2022/05/27 14:38:08;;;;;;;12.37;11.70;;;24.00;87.40;;;;;;4959979;28;20445;-73
2022/05/27 14:40:40;;;;;;;11.20;10.70;;;24.10;86.00;;;;;;4961410;28;20910;-73
2022/05/27 14:43:24;;;;;;;11.27;10.50;;;24.10;86.20;;;;;;4959339;28;20544;-73
2022/05/27 14:45:53;;;;;;;11.07;10.67;;;23.90;85.20;;;;;;4960487;28;20460;-74
2022/05/27 14:48:23;;;;;;;10.43;10.03;;;23.90;85.90;;;;;;4960658;28;20444;-74
2022/05/27 14:50:49;;;;;;;10.00;9.60;;;24.10;85.70;;;;;;4961996;28;20447;-72
2022/05/27 14:53:17;;;;;;;10.73;10.33;;;23.80;85.70;;;;;;4962512;28;20504;-72
2022/05/27 14:55:54;;;;;;;10.97;10.47;;;23.70;86.60;;;;;;4958344;28;20463;-72
2022/05/27 14:58:32;;;;;;;10.40;10.10;;;23.40;87.30;;;;;;4960463;28;20960;-73
2022/05/27 15:00:59;;;;;;;10.50;10.10;;;23.40;87.30;;;;;;4960165;28;20455;-74
2022/05/27 15:03:29;;;;;;;11.00;10.60;;;23.40;88.10;;;;;;4961968;28;21005;-73
2022/05/27 15:06:08;;;;;;;10.70;10.40;;;23.00;88.50;;;;;;4954543;28;20908;-73
2022/05/27 15:08:35;;;;;;;10.77;10.23;;;23.00;90.10;;;;;;4952447;29;20475;-73
2022/05/27 15:11:12;;;;;;;10.30;9.80;;;23.10;90.20;;;;;;4952351;29;20459;-73
2022/05/27 15:13:48;;;;;;;10.40;10.00;;;23.20;90.10;;;;;;4952092;29;20520;-73
2022/05/27 15:16:17;;;;;;;10.33;10.03;;;23.30;90.30;;;;;;4952122;29;20491;-73
2022/05/27 15:18:49;;;;;;;10.67;10.10;;;23.10;90.80;;;;;;4952265;29;20460;-73
2022/05/27 15:21:20;;;;;;;10.20;9.80;;;22.50;90.90;;;;;;4952502;29;20464;-73
2022/05/27 15:23:51;;;;;;;10.70;10.20;;;22.30;91.20;;;;;;4952546;29;20834;-73
2022/05/27 15:34:47;;;;;;;11.07;10.57;;;22.20;91.90;;;;;;4952003;29;20740;-72
2022/05/27 15:37:14;;;;;;;10.70;10.30;;;22.20;92.10;;;;;;4951943;29;20456;-72
2022/05/27 15:39:40;;;;;;;10.47;10.07;;;22.10;92.20;;;;;;4951814;29;20786;-72
2022/05/27 15:42:11;;;;;;;10.80;10.00;;;22.00;92.00;;;;;;4951946;29;20460;-73
2022/05/27 15:44:38;;;;;;;9.90;9.50;;;21.80;92.40;;;;;;4951915;29;20448;-73
2022/05/27 15:47:06;;;;;;;10.40;10.00;;;22.00;92.60;;;;;;4951986;29;20452;-73
2022/05/27 15:49:34;;;;;;;10.33;9.83;;;21.80;92.30;;;;;;4951692;29;20464;-73
2022/05/27 15:52:02;;;;;;;15.57;14.00;;;21.70;92.90;;;;;;4948451;29;20475;-73
2022/05/27 15:54:29;;;;;;;39.47;24.87;;;21.60;92.70;;;;;;4951814;29;20998;-73
2022/05/27 15:56:55;;;;;;;20.60;17.37;;;21.60;93.00;;;;;;4951738;29;20453;-73
2022/05/27 15:59:23;;;;;;;18.57;15.87;;;21.50;93.20;;;;;;4951535;29;20457;-73
2022/05/27 16:01:50;;;;;;;19.43;16.87;;;21.50;92.90;;;;;;4951482;29;20452;-73
2022/05/27 16:04:17;;;;;;;10.90;10.40;;;21.50;92.90;;;;;;4951922;29;20449;-73
2022/05/27 16:06:44;;;;;;;12.40;11.70;;;21.50;92.90;;;;;;4951758;29;20544;-73
2022/05/27 16:09:11;;;;;;;10.47;10.07;;;21.60;93.00;;;;;;4951506;29;20455;-73
2022/05/27 16:11:37;;;;;;;10.43;10.03;;;21.40;93.00;;;;;;4952603;28;20539;-72
2022/05/27 16:14:04;;;;;;;10.10;9.70;;;21.20;92.50;;;;;;4955070;29;20558;-73
2022/05/27 16:19:16;;;;;;;10.20;9.70;;;21.10;93.20;;;;;;4955572;29;20435;-73
2022/05/27 16:21:43;;;;;;;9.67;9.37;;;21.00;93.30;;;;;;4955003;29;20958;-71
2022/05/27 16:24:09;;;;;;;10.07;9.67;;;21.00;93.90;;;;;;4955091;29;20456;-72
2022/05/27 16:26:36;;;;;;;10.43;9.93;;;21.10;93.80;;;;;;4955125;29;20523;-72
2022/05/27 16:29:04;;;;;;;9.83;9.43;;;21.00;93.20;;;;;;4955191;29;20457;-73
2022/05/27 16:31:32;;;;;;;9.80;9.50;;;21.10;93.00;;;;;;4955287;29;20551;-72
2022/05/27 16:34:00;;;;;;;9.80;9.50;;;21.10;93.30;;;;;;4954956;29;20546;-72
2022/05/27 16:36:27;;;;;;;13.53;12.63;;;20.90;93.40;;;;;;4955074;29;20942;-72
2022/05/27 16:38:54;;;;;;;9.60;9.20;;;20.70;93.90;;;;;;4954926;29;21065;-72
2022/05/27 16:41:24;;;;;;;9.47;9.17;;;20.60;94.30;;;;;;4954915;29;20459;-72
2022/05/27 16:43:51;;;;;;;10.23;9.93;;;20.40;94.60;;;;;;4954851;29;20452;-73
2022/05/27 16:46:19;;;;;;;10.23;9.93;;;20.40;95.30;;;;;;4954933;29;20868;-72
2022/05/27 16:48:47;;;;;;;10.00;9.70;;;20.30;95.60;;;;;;4955007;29;20965;-74
2022/05/27 16:51:13;;;;;;;9.90;9.50;;;20.20;95.70;;;;;;4954690;29;20459;-72
2022/05/27 16:53:41;;;;;;;10.30;10.00;;;20.00;95.70;;;;;;4954622;29;21021;-73
2022/05/27 16:56:08;;;;;;;9.63;9.30;;;20.10;96.00;;;;;;4954521;29;20460;-73
2022/05/27 16:58:35;;;;;;;10.43;10.03;;;20.10;95.70;;;;;;4954559;29;20452;-73
2022/05/27 17:01:03;;;;;;;10.00;9.60;;;20.10;95.50;;;;;;4954641;29;20879;-73
2022/05/27 17:03:32;;;;;;;10.17;9.77;;;20.30;95.60;;;;;;4954736;29;20452;-73
2022/05/27 17:06:00;;;;;;;10.30;9.90;;;20.20;95.50;;;;;;4954387;29;20463;-72
2022/05/27 17:08:27;;;;;;;11.63;10.93;;;20.20;95.50;;;;;;4954452;29;20467;-73
2022/05/27 17:10:54;;;;;;;9.53;9.23;;;20.10;96.00;;;;;;4954264;29;20828;-73
2022/05/27 17:13:21;;;;;;;10.30;9.90;;;20.00;95.90;;;;;;4954122;29;20998;-73
2022/05/27 17:15:48;;;;;;;10.53;9.77;;;19.90;96.10;;;;;;4954216;29;20476;-73
2022/05/27 17:18:14;;;;;;;9.90;9.50;;;19.90;96.00;;;;;;4954168;29;20452;-73
2022/05/27 17:20:41;;;;;;;10.43;10.03;;;19.90;96.20;;;;;;4954227;29;20459;-73
2022/05/27 17:23:09;;;;;;;9.87;9.47;;;19.80;96.20;;;;;;4953233;28;20860;-73
2022/05/27 17:25:36;;;;;;;10.80;10.20;;;19.60;96.50;;;;;;4954069;29;20463;-73
2022/05/27 17:28:03;;;;;;;11.20;10.70;;;19.60;96.90;;;;;;4953868;29;20471;-73
2022/05/27 17:30:30;;;;;;;10.40;10.00;;;19.60;97.00;;;;;;4954121;29;20463;-73
2022/05/27 17:32:56;;;;;;;9.90;9.60;;;19.50;97.30;;;;;;4953466;29;20834;-73
2022/05/27 17:35:23;;;;;;;11.10;10.70;;;19.50;97.80;;;;;;4953699;29;20479;-73
2022/05/27 17:37:50;;;;;;;10.10;9.80;;;19.50;98.00;;;;;;4953774;29;20496;-73
2022/05/27 17:40:24;;;;;;;10.40;9.73;;;19.40;97.80;;;;;;4953874;29;20464;-72
2022/05/27 17:42:51;;;;;;;10.43;10.03;;;19.30;98.10;;;;;;4953646;29;20460;-73
2022/05/27 17:45:18;;;;;;;10.57;10.13;;;19.40;98.30;;;;;;4953983;29;20449;-72
2022/05/27 17:53:13;;;;;;;10.73;10.23;;;19.30;98.50;;;;;;4953520;29;20488;-72
2022/05/27 17:55:41;;;;;;;11.07;10.67;;;19.20;98.70;;;;;;4953552;29;20459;-73
2022/05/27 17:58:08;;;;;;;10.77;10.37;;;19.10;98.90;;;;;;4953197;29;20464;-73
2022/05/27 18:00:38;;;;;;;10.57;10.07;;;19.10;99.20;;;;;;4952274;29;20448;-72
2022/05/27 18:03:04;;;;;;;10.63;10.13;;;19.00;99.40;;;;;;4953636;29;20480;-73
2022/05/27 18:05:31;;;;;;;10.77;10.20;;;18.90;99.50;;;;;;4953646;29;20461;-73
2022/05/27 18:07:58;;;;;;;10.60;10.10;;;18.80;99.90;;;;;;4953339;29;20452;-73
2022/05/27 18:10:25;;;;;;;11.00;10.60;;;18.80;99.90;;;;;;4953275;29;20527;-74
2022/05/27 18:12:53;;;;;;;10.67;10.10;;;18.70;99.90;;;;;;4953171;29;20453;-73
2022/05/27 18:15:19;;;;;;;10.90;10.50;;;18.70;99.90;;;;;;4953178;29;20575;-73
2022/05/27 18:17:48;;;;;;;11.40;11.00;;;18.60;99.90;;;;;;4952216;29;20477;-73
2022/05/27 18:20:15;;;;;;;10.07;9.67;;;18.60;99.90;;;;;;4943180;29;20458;-74
2022/05/27 18:22:43;;;;;;;10.80;10.40;;;18.50;99.90;;;;;;4942035;29;20531;-73
2022/05/27 18:25:10;;;;;;;10.67;10.27;;;18.40;99.90;;;;;;4939848;29;20532;-72
2022/05/27 18:27:36;;;;;;;10.40;10.00;;;18.40;99.90;;;;;;4942564;29;20539;-72
2022/05/27 18:30:06;;;;;;;10.37;9.90;;;18.30;99.90;;;;;;4944097;29;20821;-73
2022/05/27 18:32:33;;;;;;;10.63;10.23;;;18.20;99.90;;;;;;4942859;29;20450;-72
2022/05/27 18:35:00;;;;;;;10.93;10.43;;;18.20;99.90;;;;;;4941432;28;20480;-72
2022/05/27 18:37:27;;;;;;;10.77;10.37;;;18.10;99.90;;;;;;4943863;29;20791;-73
2022/05/27 18:39:54;;;;;;;10.47;10.07;;;18.10;99.90;;;;;;4942626;29;20445;-72
2022/05/27 18:42:21;;;;;;;10.60;10.20;;;18.00;99.90;;;;;;4941893;29;20455;-72
2022/05/27 18:44:51;;;;;;;9.60;9.20;;;18.00;99.90;;;;;;4939176;29;20449;-72
2022/05/27 18:47:19;;;;;;;10.53;10.03;;;17.90;99.90;;;;;;4942567;29;20994;-73
2022/05/27 18:49:46;;;;;;;9.13;8.83;;;17.80;99.90;;;;;;4943745;29;20445;-73